sensor_id;sensor_type;location;lat;lon;timestamp;temperature;humidity
21565;DHT22;10943;48.738;9.320;2022-11-21T00:01:18;10.60;99.90
21565;DHT22;10943;48.738;9.320;2022-11-21T00:03:54;10.40;99.90
21565;DHT22;10943;48.738;9.320;2022-11-21T00:06:21;10.40;99.90
21565;DHT22;10943;48.738;9.320;2022-11-21T00:08:49;10.60;99.90
21565;DHT22;10943;48.738;9.320;2022-11-21T00:11:41;10.60;99.90
21565;DHT22;10943;48.738;9.320;2022-11-21T00:14:08;10.70;99.90
21565;DHT22;10943;48.738;9.320;2022-11-21T00:16:36;10.60;99.90
21565;DHT22;10943;48.738;9.320;2022-11-21T00:19:04;10.70;99.90
21565;DHT22;10943;48.738;9.320;2022-11-21T00:21:32;10.60;99.90
21565;DHT22;10943;48.738;9.320;2022-11-21T00:23:59;10.40;99.90
21565;DHT22;10943;48.738;9.320;2022-11-21T00:26:26;10.00;99.90
21565;DHT22;10943;48.738;9.320;2022-11-21T00:29:18;9.70;99.90
21565;DHT22;10943;48.738;9.320;2022-11-21T00:31:47;9.70;99.90
21565;DHT22;10943;48.738;9.320;2022-11-21T00:34:14;9.80;99.90
21565;DHT22;10943;48.738;9.320;2022-11-21T00:36:42;9.90;99.90
21565;DHT22;10943;48.738;9.320;2022-11-21T00:39:09;10.10;99.90
21565;DHT22;10943;48.738;9.320;2022-11-21T00:41:36;10.20;99.90
21565;DHT22;10943;48.738;9.320;2022-11-21T00:44:04;10.20;99.90
21565;DHT22;10943;48.738;9.320;2022-11-21T00:46:31;10.40;99.90
21565;DHT22;10943;48.738;9.320;2022-11-21T00:48:58;10.30;99.90
21565;DHT22;10943;48.738;9.320;2022-11-21T00:51:25;10.10;99.90
21565;DHT22;10943;48.738;9.320;2022-11-21T00:53:53;10.10;99.90
21565;DHT22;10943;48.738;9.320;2022-11-21T00:56:20;10.20;99.90
21565;DHT22;10943;48.738;9.320;2022-11-21T00:58:47;10.00;99.90
21565;DHT22;10943;48.738;9.320;2022-11-21T01:01:15;10.20;99.90
21565;DHT22;10943;48.738;9.320;2022-11-21T01:03:42;10.00;99.90
21565;DHT22;10943;48.738;9.320;2022-11-21T01:06:13;10.10;99.90
21565;DHT22;10943;48.738;9.320;2022-11-21T01:08:43;10.00;99.90
21565;DHT22;10943;48.738;9.320;2022-11-21T01:11:17;10.00;99.90
21565;DHT22;10943;48.738;9.320;2022-11-21T01:13:47;10.10;99.90
21565;DHT22;10943;48.738;9.320;2022-11-21T01:16:17;10.10;99.90
21565;DHT22;10943;48.738;9.320;2022-11-21T01:18:48;10.10;99.90
21565;DHT22;10943;48.738;9.320;2022-11-21T01:21:41;10.00;99.90
21565;DHT22;10943;48.738;9.320;2022-11-21T01:24:10;10.00;99.90
21565;DHT22;10943;48.738;9.320;2022-11-21T01:26:38;10.00;99.90
21565;DHT22;10943;48.738;9.320;2022-11-21T01:29:06;10.20;99.90
21565;DHT22;10943;48.738;9.320;2022-11-21T01:31:35;10.40;99.90
21565;DHT22;10943;48.738;9.320;2022-11-21T01:34:02;10.40;99.90
21565;DHT22;10943;48.738;9.320;2022-11-21T01:36:31;10.40;99.90
21565;DHT22;10943;48.738;9.320;2022-11-21T01:39:02;10.50;99.90
21565;DHT22;10943;48.738;9.320;2022-11-21T01:41:40;10.50;99.90
21565;DHT22;10943;48.738;9.320;2022-11-21T01:47:12;10.60;99.90
21565;DHT22;10943;48.738;9.320;2022-11-21T01:49:40;10.30;99.90
21565;DHT22;10943;48.738;9.320;2022-11-21T01:52:16;10.00;99.90
21565;DHT22;10943;48.738;9.320;2022-11-21T01:54:54;9.80;99.90
21565;DHT22;10943;48.738;9.320;2022-11-21T01:57:33;9.70;99.90
21565;DHT22;10943;48.738;9.320;2022-11-21T02:00:22;9.50;99.90
21565;DHT22;10943;48.738;9.320;2022-11-21T02:02:57;9.40;99.90
21565;DHT22;10943;48.738;9.320;2022-11-21T02:05:30;9.40;99.90
21565;DHT22;10943;48.738;9.320;2022-11-21T02:08:04;9.50;99.90
21565;DHT22;10943;48.738;9.320;2022-11-21T02:10:40;9.30;99.90
21565;DHT22;10943;48.738;9.320;2022-11-21T02:13:14;9.40;99.90
21565;DHT22;10943;48.738;9.320;2022-11-21T02:15:42;9.50;99.90
21565;DHT22;10943;48.738;9.320;2022-11-21T02:18:09;9.40;99.90
21565;DHT22;10943;48.738;9.320;2022-11-21T02:20:38;9.40;99.90
21565;DHT22;10943;48.738;9.320;2022-11-21T02:23:23;9.60;99.90
21565;DHT22;10943;48.738;9.320;2022-11-21T02:25:57;9.60;99.90
21565;DHT22;10943;48.738;9.320;2022-11-21T02:28:25;9.70;99.90
21565;DHT22;10943;48.738;9.320;2022-11-21T02:30:53;9.80;99.90
21565;DHT22;10943;48.738;9.320;2022-11-21T02:33:20;9.40;99.90
21565;DHT22;10943;48.738;9.320;2022-11-21T02:35:58;9.60;99.90
21565;DHT22;10943;48.738;9.320;2022-11-21T02:38:36;9.70;99.90
21565;DHT22;10943;48.738;9.320;2022-11-21T02:41:12;9.60;99.90
21565;DHT22;10943;48.738;9.320;2022-11-21T02:44:06;9.60;99.90
21565;DHT22;10943;48.738;9.320;2022-11-21T02:46:51;9.50;99.90
21565;DHT22;10943;48.738;9.320;2022-11-21T02:49:27;9.50;99.90
21565;DHT22;10943;48.738;9.320;2022-11-21T02:52:21;9.40;99.90
21565;DHT22;10943;48.738;9.320;2022-11-21T02:54:48;9.60;99.90
21565;DHT22;10943;48.738;9.320;2022-11-21T02:57:15;9.50;99.90
21565;DHT22;10943;48.738;9.320;2022-11-21T02:59:42;9.40;99.90
21565;DHT22;10943;48.738;9.320;2022-11-21T03:02:10;9.50;99.90
21565;DHT22;10943;48.738;9.320;2022-11-21T03:04:37;9.50;99.90
21565;DHT22;10943;48.738;9.320;2022-11-21T03:07:04;9.50;99.90
21565;DHT22;10943;48.738;9.320;2022-11-21T03:09:31;9.60;99.90
21565;DHT22;10943;48.738;9.320;2022-11-21T03:11:59;9.50;99.90
21565;DHT22;10943;48.738;9.320;2022-11-21T03:14:31;9.70;99.90
21565;DHT22;10943;48.738;9.320;2022-11-21T03:17:00;9.50;99.90
21565;DHT22;10943;48.738;9.320;2022-11-21T03:19:28;9.70;99.90
21565;DHT22;10943;48.738;9.320;2022-11-21T03:21:56;9.70;99.90
21565;DHT22;10943;48.738;9.320;2022-11-21T03:24:23;9.40;99.90
21565;DHT22;10943;48.738;9.320;2022-11-21T03:26:51;9.40;99.90
21565;DHT22;10943;48.738;9.320;2022-11-21T03:29:18;9.30;99.90
21565;DHT22;10943;48.738;9.320;2022-11-21T03:31:45;9.30;99.90
21565;DHT22;10943;48.738;9.320;2022-11-21T03:34:12;9.10;99.90
21565;DHT22;10943;48.738;9.320;2022-11-21T03:36:40;8.90;99.90
21565;DHT22;10943;48.738;9.320;2022-11-21T03:39:07;9.00;99.90
21565;DHT22;10943;48.738;9.320;2022-11-21T03:41:35;8.90;99.90
21565;DHT22;10943;48.738;9.320;2022-11-21T03:44:05;9.20;99.90
21565;DHT22;10943;48.738;9.320;2022-11-21T03:46:38;9.30;99.90
21565;DHT22;10943;48.738;9.320;2022-11-21T03:49:22;9.60;99.90
21565;DHT22;10943;48.738;9.320;2022-11-21T03:51:49;9.60;99.90
21565;DHT22;10943;48.738;9.320;2022-11-21T03:54:16;9.70;99.90
21565;DHT22;10943;48.738;9.320;2022-11-21T03:56:43;9.70;99.90
21565;DHT22;10943;48.738;9.320;2022-11-21T03:59:10;9.50;99.90
21565;DHT22;10943;48.738;9.320;2022-11-21T04:01:37;9.70;99.90
21565;DHT22;10943;48.738;9.320;2022-11-21T04:04:05;9.70;99.90
21565;DHT22;10943;48.738;9.320;2022-11-21T04:06:32;9.60;99.90
21565;DHT22;10943;48.738;9.320;2022-11-21T04:08:59;9.60;99.90
21565;DHT22;10943;48.738;9.320;2022-11-21T04:11:27;9.80;99.90
21565;DHT22;10943;48.738;9.320;2022-11-21T04:13:55;9.80;99.90
21565;DHT22;10943;48.738;9.320;2022-11-21T04:16:22;9.90;99.90
21565;DHT22;10943;48.738;9.320;2022-11-21T04:18:49;9.80;99.90
21565;DHT22;10943;48.738;9.320;2022-11-21T04:21:24;9.90;99.90
21565;DHT22;10943;48.738;9.320;2022-11-21T04:23:51;9.70;99.90
21565;DHT22;10943;48.738;9.320;2022-11-21T04:26:19;9.90;99.90
21565;DHT22;10943;48.738;9.320;2022-11-21T04:28:47;9.80;99.90
21565;DHT22;10943;48.738;9.320;2022-11-21T04:31:14;9.90;99.90
21565;DHT22;10943;48.738;9.320;2022-11-21T04:33:42;10.00;99.90
21565;DHT22;10943;48.738;9.320;2022-11-21T04:36:09;10.10;99.90
21565;DHT22;10943;48.738;9.320;2022-11-21T04:38:36;10.20;99.90
21565;DHT22;10943;48.738;9.320;2022-11-21T04:41:10;10.10;99.90
21565;DHT22;10943;48.738;9.320;2022-11-21T04:43:38;10.00;99.90
21565;DHT22;10943;48.738;9.320;2022-11-21T04:46:05;10.00;99.90
21565;DHT22;10943;48.738;9.320;2022-11-21T04:48:32;9.80;99.90
21565;DHT22;10943;48.738;9.320;2022-11-21T04:50:59;10.00;99.90
21565;DHT22;10943;48.738;9.320;2022-11-21T04:53:26;9.90;99.90
21565;DHT22;10943;48.738;9.320;2022-11-21T04:56:09;10.00;99.90
21565;DHT22;10943;48.738;9.320;2022-11-21T04:58:51;9.90;99.90
21565;DHT22;10943;48.738;9.320;2022-11-21T05:01:36;9.90;99.90
21565;DHT22;10943;48.738;9.320;2022-11-21T05:04:36;10.10;99.90
21565;DHT22;10943;48.738;9.320;2022-11-21T05:07:03;10.00;99.90
21565;DHT22;10943;48.738;9.320;2022-11-21T05:09:34;9.80;99.90
21565;DHT22;10943;48.738;9.320;2022-11-21T05:12:12;9.80;99.90
21565;DHT22;10943;48.738;9.320;2022-11-21T05:15:01;9.50;99.90
21565;DHT22;10943;48.738;9.320;2022-11-21T05:17:31;9.40;99.90
21565;DHT22;10943;48.738;9.320;2022-11-21T05:20:05;9.50;99.90
21565;DHT22;10943;48.738;9.320;2022-11-21T05:22:52;9.70;99.90
21565;DHT22;10943;48.738;9.320;2022-11-21T05:25:54;9.40;99.90
21565;DHT22;10943;48.738;9.320;2022-11-21T05:28:44;9.10;99.90
21565;DHT22;10943;48.738;9.320;2022-11-21T05:31:44;9.10;99.90
21565;DHT22;10943;48.738;9.320;2022-11-21T05:34:24;9.00;99.90
21565;DHT22;10943;48.738;9.320;2022-11-21T05:36:52;8.80;99.90
21565;DHT22;10943;48.738;9.320;2022-11-21T05:39:34;8.90;99.90
21565;DHT22;10943;48.738;9.320;2022-11-21T05:42:01;9.00;99.90
21565;DHT22;10943;48.738;9.320;2022-11-21T05:44:38;9.00;99.90
21565;DHT22;10943;48.738;9.320;2022-11-21T05:47:12;8.80;99.90
21565;DHT22;10943;48.738;9.320;2022-11-21T05:49:43;8.70;99.90
21565;DHT22;10943;48.738;9.320;2022-11-21T05:52:21;8.80;99.90
21565;DHT22;10943;48.738;9.320;2022-11-21T05:54:51;9.00;99.90
21565;DHT22;10943;48.738;9.320;2022-11-21T05:57:31;9.00;99.90
21565;DHT22;10943;48.738;9.320;2022-11-21T06:00:30;9.10;99.90
21565;DHT22;10943;48.738;9.320;2022-11-21T06:02:59;9.20;99.90
21565;DHT22;10943;48.738;9.320;2022-11-21T06:05:45;9.10;99.90
21565;DHT22;10943;48.738;9.320;2022-11-21T06:08:13;9.10;99.90
21565;DHT22;10943;48.738;9.320;2022-11-21T06:10:40;9.40;99.90
21565;DHT22;10943;48.738;9.320;2022-11-21T06:13:09;9.30;99.90
21565;DHT22;10943;48.738;9.320;2022-11-21T06:16:09;9.00;99.90
21565;DHT22;10943;48.738;9.320;2022-11-21T06:18:42;9.20;99.90
21565;DHT22;10943;48.738;9.320;2022-11-21T06:21:18;9.30;99.90
21565;DHT22;10943;48.738;9.320;2022-11-21T06:23:52;9.50;99.90
21565;DHT22;10943;48.738;9.320;2022-11-21T06:26:23;9.50;99.90
21565;DHT22;10943;48.738;9.320;2022-11-21T06:28:53;9.70;99.90
21565;DHT22;10943;48.738;9.320;2022-11-21T06:31:28;9.80;99.90
21565;DHT22;10943;48.738;9.320;2022-11-21T06:33:58;9.90;99.90
21565;DHT22;10943;48.738;9.320;2022-11-21T06:36:25;9.90;99.90
21565;DHT22;10943;48.738;9.320;2022-11-21T06:38:54;9.80;99.90
21565;DHT22;10943;48.738;9.320;2022-11-21T06:41:25;9.80;99.90
21565;DHT22;10943;48.738;9.320;2022-11-21T06:43:59;9.90;99.90
21565;DHT22;10943;48.738;9.320;2022-11-21T06:46:27;9.80;99.90
21565;DHT22;10943;48.738;9.320;2022-11-21T06:48:55;9.80;99.90
21565;DHT22;10943;48.738;9.320;2022-11-21T06:51:23;9.90;99.90
21565;DHT22;10943;48.738;9.320;2022-11-21T06:53:53;9.60;99.90
21565;DHT22;10943;48.738;9.320;2022-11-21T06:56:24;9.60;99.90
21565;DHT22;10943;48.738;9.320;2022-11-21T06:58:55;9.60;99.90
21565;DHT22;10943;48.738;9.320;2022-11-21T07:01:24;9.50;99.90
21565;DHT22;10943;48.738;9.320;2022-11-21T07:03:52;9.60;99.90
21565;DHT22;10943;48.738;9.320;2022-11-21T07:06:25;9.50;99.90
21565;DHT22;10943;48.738;9.320;2022-11-21T07:08:58;9.50;99.90
21565;DHT22;10943;48.738;9.320;2022-11-21T07:11:46;9.60;99.90
21565;DHT22;10943;48.738;9.320;2022-11-21T07:14:14;9.60;99.90
21565;DHT22;10943;48.738;9.320;2022-11-21T07:16:43;9.60;99.90
21565;DHT22;10943;48.738;9.320;2022-11-21T07:19:11;9.60;99.90
21565;DHT22;10943;48.738;9.320;2022-11-21T07:21:39;9.60;99.90
21565;DHT22;10943;48.738;9.320;2022-11-21T07:24:06;9.70;99.90
21565;DHT22;10943;48.738;9.320;2022-11-21T07:26:34;9.70;99.90
21565;DHT22;10943;48.738;9.320;2022-11-21T07:29:02;9.50;99.90
21565;DHT22;10943;48.738;9.320;2022-11-21T07:31:40;9.50;99.90
21565;DHT22;10943;48.738;9.320;2022-11-21T07:34:08;9.40;99.90
21565;DHT22;10943;48.738;9.320;2022-11-21T07:36:36;9.20;99.90
21565;DHT22;10943;48.738;9.320;2022-11-21T07:39:04;9.40;99.90
21565;DHT22;10943;48.738;9.320;2022-11-21T07:41:32;9.60;99.90
21565;DHT22;10943;48.738;9.320;2022-11-21T07:43:59;9.60;99.90
21565;DHT22;10943;48.738;9.320;2022-11-21T07:46:27;9.80;99.90
21565;DHT22;10943;48.738;9.320;2022-11-21T07:48:54;10.10;99.90
21565;DHT22;10943;48.738;9.320;2022-11-21T07:51:28;10.30;99.90
21565;DHT22;10943;48.738;9.320;2022-11-21T07:53:56;10.50;99.90
21565;DHT22;10943;48.738;9.320;2022-11-21T07:56:23;10.40;99.90
21565;DHT22;10943;48.738;9.320;2022-11-21T07:58:52;10.40;99.90
21565;DHT22;10943;48.738;9.320;2022-11-21T08:01:20;10.20;99.90
21565;DHT22;10943;48.738;9.320;2022-11-21T08:03:50;10.20;99.90
21565;DHT22;10943;48.738;9.320;2022-11-21T08:06:17;10.10;99.90
21565;DHT22;10943;48.738;9.320;2022-11-21T08:08:45;10.10;99.90
21565;DHT22;10943;48.738;9.320;2022-11-21T08:11:16;10.00;99.90
21565;DHT22;10943;48.738;9.320;2022-11-21T08:13:46;10.10;99.90
21565;DHT22;10943;48.738;9.320;2022-11-21T08:16:31;9.90;99.90
21565;DHT22;10943;48.738;9.320;2022-11-21T08:19:01;10.10;99.90
21565;DHT22;10943;48.738;9.320;2022-11-21T08:21:29;9.90;99.90
21565;DHT22;10943;48.738;9.320;2022-11-21T08:23:57;9.90;99.90
21565;DHT22;10943;48.738;9.320;2022-11-21T08:26:24;10.10;99.90
21565;DHT22;10943;48.738;9.320;2022-11-21T08:28:52;10.40;99.90
21565;DHT22;10943;48.738;9.320;2022-11-21T08:31:29;10.30;99.90
21565;DHT22;10943;48.738;9.320;2022-11-21T08:33:56;10.50;99.90
21565;DHT22;10943;48.738;9.320;2022-11-21T08:36:24;10.60;99.90
21565;DHT22;10943;48.738;9.320;2022-11-21T08:38:51;10.40;99.90
21565;DHT22;10943;48.738;9.320;2022-11-21T08:41:18;10.50;99.90
21565;DHT22;10943;48.738;9.320;2022-11-21T08:44:05;10.40;99.90
21565;DHT22;10943;48.738;9.320;2022-11-21T08:46:42;10.60;99.90
21565;DHT22;10943;48.738;9.320;2022-11-21T08:49:10;10.70;99.90
21565;DHT22;10943;48.738;9.320;2022-11-21T08:51:37;10.70;99.90
21565;DHT22;10943;48.738;9.320;2022-11-21T08:54:05;11.00;99.90
21565;DHT22;10943;48.738;9.320;2022-11-21T08:56:35;11.20;99.90
21565;DHT22;10943;48.738;9.320;2022-11-21T08:59:03;11.70;99.90
21565;DHT22;10943;48.738;9.320;2022-11-21T09:01:30;13.60;99.90
21565;DHT22;10943;48.738;9.320;2022-11-21T09:04:25;16.30;99.90
21565;DHT22;10943;48.738;9.320;2022-11-21T09:06:53;19.50;99.90
21565;DHT22;10943;48.738;9.320;2022-11-21T09:09:20;21.50;99.90
21565;DHT22;10943;48.738;9.320;2022-11-21T09:11:51;23.10;99.90
21565;DHT22;10943;48.738;9.320;2022-11-21T09:14:19;24.00;99.90
21565;DHT22;10943;48.738;9.320;2022-11-21T09:17:05;24.50;99.90
21565;DHT22;10943;48.738;9.320;2022-11-21T09:19:53;24.50;99.90
21565;DHT22;10943;48.738;9.320;2022-11-21T09:22:23;24.60;99.90
21565;DHT22;10943;48.738;9.320;2022-11-21T09:24:52;25.00;99.90
21565;DHT22;10943;48.738;9.320;2022-11-21T09:27:19;25.50;99.90
21565;DHT22;10943;48.738;9.320;2022-11-21T09:29:54;25.30;99.90
21565;DHT22;10943;48.738;9.320;2022-11-21T09:32:22;25.40;97.60
21565;DHT22;10943;48.738;9.320;2022-11-21T09:34:50;25.50;97.60
21565;DHT22;10943;48.738;9.320;2022-11-21T09:37:17;26.00;96.50
21565;DHT22;10943;48.738;9.320;2022-11-21T09:39:47;26.70;93.80
21565;DHT22;10943;48.738;9.320;2022-11-21T09:45:08;27.10;94.00
21565;DHT22;10943;48.738;9.320;2022-11-21T09:48:03;25.90;92.70
21565;DHT22;10943;48.738;9.320;2022-11-21T09:50:46;25.60;93.20
21565;DHT22;10943;48.738;9.320;2022-11-21T09:53:24;25.70;91.40
21565;DHT22;10943;48.738;9.320;2022-11-21T09:55:59;25.00;92.50
21565;DHT22;10943;48.738;9.320;2022-11-21T09:58:46;23.30;93.30
21565;DHT22;10943;48.738;9.320;2022-11-21T10:01:33;21.90;95.00
21565;DHT22;10943;48.738;9.320;2022-11-21T10:04:03;20.60;97.20
21565;DHT22;10943;48.738;9.320;2022-11-21T10:10:03;22.80;96.00
21565;DHT22;10943;48.738;9.320;2022-11-21T10:13:17;23.50;94.00
21565;DHT22;10943;48.738;9.320;2022-11-21T10:19:55;22.40;95.40
21565;DHT22;10943;48.738;9.320;2022-11-21T10:26:13;24.40;93.10
21565;DHT22;10943;48.738;9.320;2022-11-21T10:28:58;26.50;93.40
21565;DHT22;10943;48.738;9.320;2022-11-21T10:31:33;27.30;91.70
21565;DHT22;10943;48.738;9.320;2022-11-21T10:34:18;28.30;90.00
21565;DHT22;10943;48.738;9.320;2022-11-21T10:36:56;29.10;85.60
21565;DHT22;10943;48.738;9.320;2022-11-21T10:39:48;28.40;81.90
21565;DHT22;10943;48.738;9.320;2022-11-21T10:42:43;28.00;83.70
21565;DHT22;10943;48.738;9.320;2022-11-21T10:45:17;27.10;86.80
21565;DHT22;10943;48.738;9.320;2022-11-21T10:47:51;26.70;84.20
21565;DHT22;10943;48.738;9.320;2022-11-21T10:53:44;24.30;89.20
21565;DHT22;10943;48.738;9.320;2022-11-21T10:56:34;22.80;91.20
21565;DHT22;10943;48.738;9.320;2022-11-21T10:59:22;21.80;91.90
21565;DHT22;10943;48.738;9.320;2022-11-21T11:02:19;21.00;93.50
21565;DHT22;10943;48.738;9.320;2022-11-21T11:08:09;20.60;93.60
21565;DHT22;10943;48.738;9.320;2022-11-21T11:10:44;20.90;94.30
21565;DHT22;10943;48.738;9.320;2022-11-21T11:13:31;21.60;94.30
21565;DHT22;10943;48.738;9.320;2022-11-21T11:16:18;22.30;93.10
21565;DHT22;10943;48.738;9.320;2022-11-21T11:21:41;24.20;90.70
21565;DHT22;10943;48.738;9.320;2022-11-21T11:29:28;22.60;92.60
21565;DHT22;10943;48.738;9.320;2022-11-21T11:32:11;22.10;91.60
21565;DHT22;10943;48.738;9.320;2022-11-21T11:34:58;21.10;91.40
21565;DHT22;10943;48.738;9.320;2022-11-21T11:37:40;19.90;92.30
21565;DHT22;10943;48.738;9.320;2022-11-21T11:40:31;19.60;93.40
21565;DHT22;10943;48.738;9.320;2022-11-21T11:43:28;19.00;93.70
21565;DHT22;10943;48.738;9.320;2022-11-21T11:49:51;18.60;94.30
21565;DHT22;10943;48.738;9.320;2022-11-21T11:53:09;19.50;93.20
21565;DHT22;10943;48.738;9.320;2022-11-21T12:04:48;19.40;93.60
21565;DHT22;10943;48.738;9.320;2022-11-21T12:07:26;18.80;95.60
21565;DHT22;10943;48.738;9.320;2022-11-21T12:10:25;18.80;94.70
21565;DHT22;10943;48.738;9.320;2022-11-21T12:13:09;19.20;95.00
21565;DHT22;10943;48.738;9.320;2022-11-21T12:15:43;18.90;95.00
21565;DHT22;10943;48.738;9.320;2022-11-21T12:30:19;18.60;95.60
21565;DHT22;10943;48.738;9.320;2022-11-21T12:39:28;17.60;96.90
21565;DHT22;10943;48.738;9.320;2022-11-21T12:51:22;16.50;98.20
21565;DHT22;10943;48.738;9.320;2022-11-21T13:01:21;16.70;99.80
21565;DHT22;10943;48.738;9.320;2022-11-21T13:04:14;17.40;98.80
21565;DHT22;10943;48.738;9.320;2022-11-21T13:06:57;17.70;98.70
21565;DHT22;10943;48.738;9.320;2022-11-21T13:09:25;17.80;98.30
21565;DHT22;10943;48.738;9.320;2022-11-21T13:12:32;17.90;97.20
21565;DHT22;10943;48.738;9.320;2022-11-21T13:16:00;17.80;98.00
21565;DHT22;10943;48.738;9.320;2022-11-21T13:18:34;18.30;96.60
21565;DHT22;10943;48.738;9.320;2022-11-21T13:27:33;17.90;96.60
21565;DHT22;10943;48.738;9.320;2022-11-21T13:32:53;17.40;97.60
21565;DHT22;10943;48.738;9.320;2022-11-21T13:45:52;17.00;97.30
21565;DHT22;10943;48.738;9.320;2022-11-21T13:54:35;17.40;97.20
21565;DHT22;10943;48.738;9.320;2022-11-21T13:57:48;17.20;97.40
21565;DHT22;10943;48.738;9.320;2022-11-21T14:07:25;15.90;98.40
21565;DHT22;10943;48.738;9.320;2022-11-21T14:09:59;15.80;99.20
21565;DHT22;10943;48.738;9.320;2022-11-21T14:12:34;16.00;98.50
21565;DHT22;10943;48.738;9.320;2022-11-21T14:15:21;15.90;99.00
21565;DHT22;10943;48.738;9.320;2022-11-21T14:18:00;16.00;99.00
21565;DHT22;10943;48.738;9.320;2022-11-21T14:20:31;16.00;99.80
21565;DHT22;10943;48.738;9.320;2022-11-21T14:23:16;15.80;99.80
21565;DHT22;10943;48.738;9.320;2022-11-21T14:25:53;15.80;99.60
21565;DHT22;10943;48.738;9.320;2022-11-21T14:28:29;15.80;99.10
21565;DHT22;10943;48.738;9.320;2022-11-21T14:31:03;15.70;98.50
21565;DHT22;10943;48.738;9.320;2022-11-21T14:33:35;15.70;98.60
21565;DHT22;10943;48.738;9.320;2022-11-21T14:38:54;15.20;99.60
21565;DHT22;10943;48.738;9.320;2022-11-21T14:41:50;15.10;99.90
21565;DHT22;10943;48.738;9.320;2022-11-21T14:44:21;14.90;99.90
21565;DHT22;10943;48.738;9.320;2022-11-21T14:47:00;14.80;99.90
21565;DHT22;10943;48.738;9.320;2022-11-21T14:49:53;14.60;99.90
21565;DHT22;10943;48.738;9.320;2022-11-21T14:52:29;14.50;99.90
21565;DHT22;10943;48.738;9.320;2022-11-21T14:55:01;14.50;99.90
21565;DHT22;10943;48.738;9.320;2022-11-21T14:57:53;14.40;99.90
21565;DHT22;10943;48.738;9.320;2022-11-21T15:00:24;14.30;99.90
21565;DHT22;10943;48.738;9.320;2022-11-21T15:03:19;14.20;99.90
21565;DHT22;10943;48.738;9.320;2022-11-21T15:05:56;14.20;99.90
21565;DHT22;10943;48.738;9.320;2022-11-21T15:08:34;14.10;99.90
21565;DHT22;10943;48.738;9.320;2022-11-21T15:11:38;13.90;99.90
21565;DHT22;10943;48.738;9.320;2022-11-21T15:17:05;13.90;99.90
21565;DHT22;10943;48.738;9.320;2022-11-21T15:19:40;13.70;99.90
21565;DHT22;10943;48.738;9.320;2022-11-21T15:22:27;13.40;99.90
21565;DHT22;10943;48.738;9.320;2022-11-21T15:27:47;13.00;99.90
21565;DHT22;10943;48.738;9.320;2022-11-21T15:35:52;13.00;99.90
21565;DHT22;10943;48.738;9.320;2022-11-21T15:43:38;12.70;99.90
21565;DHT22;10943;48.738;9.320;2022-11-21T15:48:46;12.30;99.90
21565;DHT22;10943;48.738;9.320;2022-11-21T15:51:22;12.40;99.90
21565;DHT22;10943;48.738;9.320;2022-11-21T15:54:20;12.30;99.90
21565;DHT22;10943;48.738;9.320;2022-11-21T15:56:48;12.10;99.90
21565;DHT22;10943;48.738;9.320;2022-11-21T15:59:16;12.00;99.90
21565;DHT22;10943;48.738;9.320;2022-11-21T16:01:45;11.90;99.90
21565;DHT22;10943;48.738;9.320;2022-11-21T16:04:12;11.70;99.90
21565;DHT22;10943;48.738;9.320;2022-11-21T16:06:50;11.60;99.90
21565;DHT22;10943;48.738;9.320;2022-11-21T16:09:18;11.50;99.90
21565;DHT22;10943;48.738;9.320;2022-11-21T16:11:47;11.30;99.90
21565;DHT22;10943;48.738;9.320;2022-11-21T16:14:15;11.30;99.90
21565;DHT22;10943;48.738;9.320;2022-11-21T16:16:44;11.20;99.90
21565;DHT22;10943;48.738;9.320;2022-11-21T16:19:14;11.20;99.90
21565;DHT22;10943;48.738;9.320;2022-11-21T16:26:59;11.10;99.90
21565;DHT22;10943;48.738;9.320;2022-11-21T16:29:28;10.90;99.90
21565;DHT22;10943;48.738;9.320;2022-11-21T16:31:56;10.80;99.90
21565;DHT22;10943;48.738;9.320;2022-11-21T16:34:24;10.70;99.90
21565;DHT22;10943;48.738;9.320;2022-11-21T16:36:55;10.70;99.90
21565;DHT22;10943;48.738;9.320;2022-11-21T16:39:23;10.70;99.90
21565;DHT22;10943;48.738;9.320;2022-11-21T16:41:50;10.40;99.90
21565;DHT22;10943;48.738;9.320;2022-11-21T16:44:17;10.20;99.90
21565;DHT22;10943;48.738;9.320;2022-11-21T16:46:45;10.20;99.90
21565;DHT22;10943;48.738;9.320;2022-11-21T16:49:14;10.20;99.90
21565;DHT22;10943;48.738;9.320;2022-11-21T16:51:42;10.20;99.90
21565;DHT22;10943;48.738;9.320;2022-11-21T16:54:09;10.30;99.90
21565;DHT22;10943;48.738;9.320;2022-11-21T16:56:37;10.30;99.90
21565;DHT22;10943;48.738;9.320;2022-11-21T16:59:05;10.30;99.90
21565;DHT22;10943;48.738;9.320;2022-11-21T17:01:32;10.30;99.90
21565;DHT22;10943;48.738;9.320;2022-11-21T17:04:00;10.10;99.90
21565;DHT22;10943;48.738;9.320;2022-11-21T17:06:29;10.00;99.90
21565;DHT22;10943;48.738;9.320;2022-11-21T17:08:59;10.10;99.90
21565;DHT22;10943;48.738;9.320;2022-11-21T17:11:29;9.80;99.90
21565;DHT22;10943;48.738;9.320;2022-11-21T17:14:03;9.50;99.90
21565;DHT22;10943;48.738;9.320;2022-11-21T17:16:32;10.00;99.90
21565;DHT22;10943;48.738;9.320;2022-11-21T17:19:02;9.80;99.90
21565;DHT22;10943;48.738;9.320;2022-11-21T17:21:32;9.70;99.90
21565;DHT22;10943;48.738;9.320;2022-11-21T17:24:02;9.70;99.90
21565;DHT22;10943;48.738;9.320;2022-11-21T17:26:47;9.80;99.90
21565;DHT22;10943;48.738;9.320;2022-11-21T17:29:14;9.80;99.90
21565;DHT22;10943;48.738;9.320;2022-11-21T17:31:43;9.70;99.90
21565;DHT22;10943;48.738;9.320;2022-11-21T17:34:10;9.70;99.90
21565;DHT22;10943;48.738;9.320;2022-11-21T17:36:37;9.50;99.90
21565;DHT22;10943;48.738;9.320;2022-11-21T17:39:04;9.50;99.90
21565;DHT22;10943;48.738;9.320;2022-11-21T17:41:32;9.50;99.90
21565;DHT22;10943;48.738;9.320;2022-11-21T17:43:59;9.50;99.90
21565;DHT22;10943;48.738;9.320;2022-11-21T17:46:27;9.60;99.90
21565;DHT22;10943;48.738;9.320;2022-11-21T17:48:55;9.60;99.90
21565;DHT22;10943;48.738;9.320;2022-11-21T17:51:27;9.50;99.90
21565;DHT22;10943;48.738;9.320;2022-11-21T17:54:00;9.50;99.90
21565;DHT22;10943;48.738;9.320;2022-11-21T17:56:30;9.50;99.90
21565;DHT22;10943;48.738;9.320;2022-11-21T17:59:05;9.50;99.90
21565;DHT22;10943;48.738;9.320;2022-11-21T18:02:02;9.50;99.90
21565;DHT22;10943;48.738;9.320;2022-11-21T18:05:32;9.60;99.90
21565;DHT22;10943;48.738;9.320;2022-11-21T18:08:17;9.60;99.90
21565;DHT22;10943;48.738;9.320;2022-11-21T18:10:51;9.50;99.90
21565;DHT22;10943;48.738;9.320;2022-11-21T18:13:30;9.60;99.90
21565;DHT22;10943;48.738;9.320;2022-11-21T18:19:53;9.50;99.90
21565;DHT22;10943;48.738;9.320;2022-11-21T18:22:38;9.60;99.90
21565;DHT22;10943;48.738;9.320;2022-11-21T18:25:24;9.90;99.90
21565;DHT22;10943;48.738;9.320;2022-11-21T18:27:57;9.90;99.90
21565;DHT22;10943;48.738;9.320;2022-11-21T18:34:01;9.90;99.90
21565;DHT22;10943;48.738;9.320;2022-11-21T18:36:37;9.90;99.90
21565;DHT22;10943;48.738;9.320;2022-11-21T18:39:04;9.70;99.90
21565;DHT22;10943;48.738;9.320;2022-11-21T18:41:41;9.70;99.90
21565;DHT22;10943;48.738;9.320;2022-11-21T18:44:12;9.80;99.90
21565;DHT22;10943;48.738;9.320;2022-11-21T18:47:01;9.90;99.90
21565;DHT22;10943;48.738;9.320;2022-11-21T18:50:00;9.90;99.90